createdAt,value
2017-10-29T00:02:16.855Z,118.20
2017-10-29T00:04:46.507Z,119.43
2017-10-29T00:07:15.245Z,125.33
2017-10-29T00:09:43.243Z,126.20
2017-10-29T00:12:11.418Z,129.50
2017-10-29T00:14:39.899Z,127.10
2017-10-29T00:17:08.624Z,118.00
2017-10-29T00:19:38.032Z,127.47
2017-10-29T00:22:06.770Z,121.57
2017-10-29T00:24:34.759Z,127.43
2017-10-29T00:27:02.918Z,129.27
2017-10-29T00:29:31.809Z,111.50
2017-10-29T00:32:00.195Z,117.63
2017-10-29T00:34:28.299Z,118.47
2017-10-29T00:36:57.051Z,119.50
2017-10-29T00:39:25.041Z,118.70
2017-10-29T00:41:53.160Z,121.63
2017-10-29T00:44:21.217Z,122.17
2017-10-29T00:46:50.622Z,113.27
2017-10-29T00:49:20.054Z,117.40
2017-10-29T00:51:48.571Z,119.93
2017-10-29T00:54:16.567Z,121.90
2017-10-29T00:56:45.419Z,113.67
2017-10-29T00:59:14.112Z,122.10
2017-10-29T01:01:42.312Z,120.43
2017-10-29T01:04:11.222Z,116.47
2017-10-29T01:06:40.324Z,122.30
2017-10-29T01:09:09.141Z,114.93
2017-10-29T01:11:37.348Z,122.13
2017-10-29T01:14:05.735Z,116.00
2017-10-29T01:16:34.412Z,118.23
2017-10-29T01:19:02.750Z,120.53
2017-10-29T01:21:31.284Z,119.53
2017-10-29T01:23:59.307Z,123.93
2017-10-29T01:26:27.513Z,123.93
2017-10-29T01:28:55.594Z,119.53
2017-10-29T01:31:24.337Z,120.10
2017-10-29T01:33:52.447Z,115.07
2017-10-29T01:36:21.060Z,121.00
2017-10-29T01:38:49.793Z,119.90
2017-10-29T01:41:17.984Z,125.50
2017-10-29T01:43:46.005Z,122.40
2017-10-29T01:46:14.786Z,123.20
2017-10-29T01:48:43.472Z,124.43
2017-10-29T01:51:11.519Z,129.63
2017-10-29T01:53:39.994Z,126.67
2017-10-29T01:56:08.170Z,131.80
2017-10-29T01:58:36.172Z,126.33
2017-10-29T02:01:04.275Z,125.33
2017-10-29T02:03:33.894Z,120.27
2017-10-29T02:06:02.499Z,122.47
2017-10-29T02:08:30.542Z,119.70
2017-10-29T02:10:59.458Z,116.63
2017-10-29T02:13:27.498Z,120.83
2017-10-29T02:15:56.283Z,119.83
2017-10-29T02:18:25.739Z,122.80
2017-10-29T02:20:54.067Z,125.20
2017-10-29T02:23:23.002Z,114.50
2017-10-29T02:25:52.043Z,117.67
2017-10-29T02:28:20.040Z,125.40
2017-10-29T02:30:48.775Z,122.60
2017-10-29T02:33:17.537Z,109.47
2017-10-29T02:35:45.957Z,119.33
2017-10-29T02:38:13.957Z,118.00
2017-10-29T02:40:42.804Z,117.73
2017-10-29T02:43:10.854Z,118.67
2017-10-29T02:45:38.940Z,126.37
2017-10-29T02:48:07.163Z,119.27
2017-10-29T02:50:35.952Z,124.90
2017-10-29T02:53:03.987Z,124.50
2017-10-29T02:55:32.212Z,123.23
2017-10-29T02:58:01.003Z,119.33
2017-10-29T03:00:29.744Z,122.77
2017-10-29T03:02:57.855Z,125.63
2017-10-29T03:05:26.598Z,120.83
2017-10-29T03:07:54.637Z,118.63
2017-10-29T03:10:23.598Z,121.93
2017-10-29T03:12:51.630Z,129.13
2017-10-29T03:15:19.648Z,116.90
2017-10-29T03:17:48.523Z,124.30
2017-10-29T03:20:17.111Z,118.50
2017-10-29T03:22:45.256Z,110.23
2017-10-29T03:25:13.438Z,110.80
2017-10-29T03:27:41.940Z,113.07
2017-10-29T03:30:10.126Z,113.20
2017-10-29T03:32:39.561Z,107.53
2017-10-29T03:35:08.815Z,105.83
2017-10-29T03:37:37.439Z,108.30
2017-10-29T03:40:06.510Z,117.93
2017-10-29T03:42:35.144Z,112.03
2017-10-29T03:45:03.191Z,109.20
2017-10-29T03:47:32.071Z,107.37
2017-10-29T03:50:00.750Z,100.83
2017-10-29T03:52:28.816Z,100.43
2017-10-29T03:54:57.596Z,106.27
2017-10-29T03:57:26.355Z,103.20
2017-10-29T03:59:54.416Z,102.03
2017-10-29T04:02:22.582Z,98.47
2017-10-29T04:04:52.055Z,97.10
2017-10-29T04:07:20.462Z,99.77
2017-10-29T04:09:49.982Z,100.33
2017-10-29T04:12:18.494Z,100.23
2017-10-29T04:14:46.499Z,96.10
2017-10-29T04:17:14.637Z,94.13
2017-10-29T04:19:43.321Z,86.03
2017-10-29T04:22:11.827Z,88.77
2017-10-29T04:24:40.629Z,84.57
2017-10-29T04:27:09.132Z,84.60
2017-10-29T04:29:37.935Z,83.40
2017-10-29T04:32:06.838Z,84.67
2017-10-29T04:34:34.878Z,84.67
2017-10-29T04:37:03.710Z,86.97
2017-10-29T04:39:31.895Z,79.77
2017-10-29T04:41:59.940Z,80.63
2017-10-29T04:44:28.154Z,84.03
2017-10-29T04:46:56.311Z,83.60
2017-10-29T04:49:24.309Z,78.50
2017-10-29T04:51:52.999Z,81.27
2017-10-29T04:54:21.116Z,84.03
2017-10-29T04:56:50.456Z,78.33
2017-10-29T04:59:19.855Z,83.93
2017-10-29T05:01:47.968Z,77.90
2017-10-29T05:04:16.015Z,71.37
2017-10-29T05:06:44.495Z,75.10
2017-10-29T05:09:12.691Z,67.80
2017-10-29T05:11:41.214Z,62.03
2017-10-29T05:14:09.996Z,60.93
2017-10-29T05:16:38.194Z,62.87
2017-10-29T05:19:06.266Z,61.43
2017-10-29T05:21:34.980Z,60.70
2017-10-29T05:24:03.481Z,55.93
2017-10-29T05:26:32.206Z,57.00
2017-10-29T05:29:01.168Z,54.03
2017-10-29T05:31:30.079Z,58.40
2017-10-29T05:33:58.859Z,53.77
2017-10-29T05:36:27.512Z,56.47
2017-10-29T05:38:56.097Z,54.30
2017-10-29T05:41:24.558Z,57.03
2017-10-29T05:43:53.264Z,49.57
2017-10-29T05:46:21.424Z,49.60
2017-10-29T05:48:49.527Z,50.27
2017-10-29T05:51:18.082Z,52.13
2017-10-29T05:53:46.904Z,45.77
2017-10-29T05:56:15.335Z,47.10
2017-10-29T05:58:44.534Z,43.93
2017-10-29T06:01:13.484Z,47.17
2017-10-29T06:03:41.568Z,50.50
2017-10-29T06:06:10.022Z,45.53
2017-10-29T06:08:38.151Z,44.43
2017-10-29T06:11:07.439Z,44.90
2017-10-29T06:13:36.619Z,40.07
2017-10-29T06:16:04.799Z,45.37
2017-10-29T06:18:33.097Z,42.20
2017-10-29T06:21:01.919Z,41.23
2017-10-29T06:23:30.134Z,43.07
2017-10-29T06:25:58.712Z,44.20
2017-10-29T06:28:27.565Z,40.53
2017-10-29T06:30:56.487Z,39.73
2017-10-29T06:33:24.504Z,39.37
2017-10-29T06:35:53.272Z,37.40
2017-10-29T06:38:21.434Z,37.87
2017-10-29T06:40:50.060Z,41.37
2017-10-29T06:43:18.133Z,41.90
2017-10-29T06:45:47.452Z,44.47
2017-10-29T06:48:15.444Z,38.40
2017-10-29T06:50:43.509Z,34.47
2017-10-29T06:53:12.203Z,31.80
2017-10-29T06:55:42.026Z,34.50
2017-10-29T06:58:10.759Z,30.20
2017-10-29T07:00:39.871Z,31.60
2017-10-29T07:03:08.679Z,26.77
2017-10-29T07:05:36.707Z,24.50
2017-10-29T07:08:05.256Z,28.80
2017-10-29T07:10:33.908Z,25.80
2017-10-29T07:13:02.358Z,24.67
2017-10-29T07:15:30.615Z,41.67
2017-10-29T07:17:58.746Z,27.80
2017-10-29T07:20:26.833Z,29.50
2017-10-29T07:22:55.707Z,28.37
2017-10-29T07:25:24.979Z,26.33
2017-10-29T07:27:53.571Z,32.73
2017-10-29T07:30:22.999Z,32.07
2017-10-29T07:32:51.494Z,36.53
2017-10-29T07:35:19.507Z,31.50
2017-10-29T07:37:47.620Z,30.40
2017-10-29T07:40:16.600Z,36.30
2017-10-29T07:42:45.422Z,26.33
2017-10-29T07:45:14.408Z,29.23
2017-10-29T07:47:42.892Z,29.70
2017-10-29T07:50:11.507Z,25.17
2017-10-29T07:52:39.777Z,34.03
2017-10-29T07:55:08.316Z,31.17
2017-10-29T07:57:37.595Z,33.60
2017-10-29T08:00:06.394Z,26.40
2017-10-29T08:02:34.807Z,27.13
2017-10-29T08:05:02.858Z,31.80
2017-10-29T08:07:31.778Z,25.13
2017-10-29T08:10:00.202Z,30.67
2017-10-29T08:12:28.719Z,28.50
2017-10-29T08:14:57.595Z,28.80
2017-10-29T08:17:26.241Z,27.43
2017-10-29T08:19:54.951Z,23.97
2017-10-29T08:22:23.121Z,24.40
2017-10-29T08:24:51.114Z,25.13
2017-10-29T08:27:19.119Z,25.57
2017-10-29T08:29:47.280Z,27.17
2017-10-29T08:32:16.715Z,26.87
2017-10-29T08:34:44.737Z,24.43
2017-10-29T08:37:12.902Z,31.70
2017-10-29T08:39:40.934Z,31.67
2017-10-29T08:42:09.507Z,26.83
2017-10-29T08:44:37.808Z,26.17
2017-10-29T08:47:06.604Z,27.20
2017-10-29T08:49:34.655Z,24.23
2017-10-29T08:52:02.763Z,29.33
2017-10-29T08:54:31.442Z,25.83
2017-10-29T08:56:59.874Z,26.33
2017-10-29T08:59:29.295Z,31.47
2017-10-29T09:01:57.667Z,30.07
2017-10-29T09:04:26.655Z,30.77
2017-10-29T09:06:55.566Z,26.70
2017-10-29T09:09:23.560Z,31.17
2017-10-29T09:11:52.306Z,32.30
2017-10-29T09:14:20.490Z,31.73
2017-10-29T09:16:49.405Z,29.93
2017-10-29T09:19:18.213Z,31.93
2017-10-29T09:21:46.986Z,27.43
2017-10-29T09:24:14.980Z,28.90
2017-10-29T09:26:43.424Z,27.50
2017-10-29T09:29:12.444Z,31.63
2017-10-29T09:31:40.991Z,31.00
2017-10-29T09:34:09.802Z,27.83
2017-10-29T09:36:37.971Z,23.13
2017-10-29T09:39:06.039Z,23.07
2017-10-29T09:41:34.090Z,25.83
2017-10-29T09:44:03.514Z,28.87
2017-10-29T09:46:31.982Z,25.07
2017-10-29T09:49:01.227Z,31.23
2017-10-29T09:51:29.336Z,35.40
2017-10-29T09:53:57.394Z,25.80
2017-10-29T09:56:25.394Z,24.37
2017-10-29T09:58:54.334Z,27.90
2017-10-29T10:01:24.090Z,27.53
2017-10-29T10:03:54.855Z,23.97
2017-10-29T10:06:23.033Z,24.47
2017-10-29T10:08:52.439Z,27.27
2017-10-29T10:11:20.875Z,29.50
2017-10-29T10:13:49.537Z,26.70
2017-10-29T10:16:20.816Z,23.50
2017-10-29T10:18:50.047Z,21.60
2017-10-29T10:21:18.478Z,25.20
2017-10-29T10:23:46.695Z,30.17
2017-10-29T10:26:16.052Z,31.77
2017-10-29T10:28:45.249Z,26.53
2017-10-29T10:31:14.367Z,27.20
2017-10-29T10:33:42.700Z,23.80
2017-10-29T10:36:12.115Z,26.50
2017-10-29T10:38:41.075Z,31.50
2017-10-29T10:41:11.439Z,24.37
2017-10-29T10:43:40.264Z,25.07
2017-10-29T10:46:08.765Z,33.57
2017-10-29T10:48:38.317Z,26.63
2017-10-29T10:51:06.526Z,27.93
2017-10-29T10:53:35.455Z,26.43
2017-10-29T10:56:05.054Z,25.53
2017-10-29T10:58:33.791Z,26.90
2017-10-29T11:01:02.162Z,27.17
2017-10-29T11:03:33.424Z,30.67
2017-10-29T11:06:04.375Z,25.23
2017-10-29T11:08:32.999Z,25.77
2017-10-29T11:11:03.164Z,28.93
2017-10-29T11:13:31.722Z,24.73
2017-10-29T11:16:00.795Z,21.20
2017-10-29T11:18:30.783Z,26.13
2017-10-29T11:20:59.411Z,23.73
2017-10-29T11:23:28.576Z,24.67
2017-10-29T11:25:57.441Z,22.07
2017-10-29T11:28:26.219Z,26.07
2017-10-29T11:30:56.486Z,26.03
2017-10-29T11:33:27.836Z,24.90
2017-10-29T11:35:56.944Z,25.10
2017-10-29T11:38:26.067Z,26.23
2017-10-29T11:40:54.859Z,22.50
2017-10-29T11:43:24.195Z,23.50
2017-10-29T11:45:53.037Z,21.23
2017-10-29T11:48:22.725Z,29.87
2017-10-29T11:50:54.783Z,28.53
2017-10-29T11:53:24.578Z,25.63
2017-10-29T11:55:53.951Z,23.93
2017-10-29T11:58:23.009Z,30.40
2017-10-29T12:00:52.337Z,25.83
2017-10-29T12:03:21.232Z,21.83
2017-10-29T12:05:49.866Z,22.13
2017-10-29T12:08:17.929Z,22.63
2017-10-29T12:10:46.392Z,20.50
2017-10-29T12:13:14.457Z,22.23
2017-10-29T12:15:42.451Z,22.27
2017-10-29T12:18:11.590Z,21.33
2017-10-29T12:20:41.657Z,21.63
2017-10-29T12:23:11.006Z,21.07
2017-10-29T12:25:40.932Z,29.33
2017-10-29T12:28:10.107Z,25.80
2017-10-29T12:30:39.754Z,23.40
2017-10-29T12:33:10.472Z,31.67
2017-10-29T12:35:42.612Z,22.10
2017-10-29T12:38:11.494Z,22.83
2017-10-29T12:40:42.139Z,25.93
2017-10-29T12:43:10.148Z,21.73
2017-10-29T12:45:41.790Z,27.00
2017-10-29T12:48:10.452Z,23.37
2017-10-29T12:50:39.259Z,26.47
2017-10-29T12:53:07.879Z,22.93
2017-10-29T12:55:37.280Z,23.83
2017-10-29T12:58:07.210Z,23.23
2017-10-29T13:00:36.839Z,24.67
2017-10-29T13:03:06.080Z,25.70
2017-10-29T13:05:35.718Z,24.97
2017-10-29T13:08:03.938Z,28.77
2017-10-29T13:10:34.739Z,28.03
2017-10-29T13:13:04.111Z,26.13
2017-10-29T13:15:32.828Z,28.60
2017-10-29T13:18:01.190Z,25.27
2017-10-29T13:20:30.611Z,28.50
2017-10-29T13:22:59.090Z,25.47
2017-10-29T13:25:30.490Z,40.37
2017-10-29T13:28:01.108Z,30.83
2017-10-29T13:30:29.167Z,30.67
2017-10-29T13:32:59.630Z,29.67
2017-10-29T13:35:29.746Z,31.40
2017-10-29T13:37:58.410Z,27.50
2017-10-29T13:40:28.350Z,29.23
2017-10-29T13:42:57.006Z,28.97
2017-10-29T13:45:25.714Z,28.33
2017-10-29T13:47:54.493Z,30.23
2017-10-29T13:50:22.686Z,29.40
2017-10-29T13:52:53.069Z,29.40
2017-10-29T13:55:21.531Z,31.80
2017-10-29T13:57:50.148Z,29.27
2017-10-29T14:00:19.110Z,27.20
2017-10-29T14:02:48.245Z,26.77
2017-10-29T14:05:17.656Z,31.57
2017-10-29T14:07:47.866Z,30.57
2017-10-29T14:10:16.409Z,28.63
2017-10-29T14:12:44.770Z,27.27
2017-10-29T14:15:12.787Z,29.27
2017-10-29T14:17:42.700Z,28.70
2017-10-29T14:20:12.984Z,28.17
2017-10-29T14:22:42.685Z,26.83
2017-10-29T14:25:11.153Z,29.17
2017-10-29T14:27:39.859Z,29.13
2017-10-29T14:30:09.439Z,29.07
2017-10-29T14:32:38.638Z,29.37
2017-10-29T14:35:08.606Z,28.10
2017-10-29T14:37:38.494Z,27.63
2017-10-29T14:40:07.414Z,29.00
2017-10-29T14:42:37.289Z,27.93
2017-10-29T14:45:06.144Z,28.53
2017-10-29T14:47:34.284Z,27.83
2017-10-29T14:50:02.551Z,31.70
2017-10-29T14:52:32.293Z,30.10
2017-10-29T14:55:02.343Z,29.53
2017-10-29T14:57:31.934Z,29.60
2017-10-29T15:00:00.711Z,28.33
2017-10-29T15:02:29.510Z,31.37
2017-10-29T15:04:59.547Z,29.93
2017-10-29T15:07:28.479Z,30.40
2017-10-29T15:09:56.962Z,31.23
2017-10-29T15:12:26.972Z,28.70
2017-10-29T15:14:55.767Z,30.10
2017-10-29T15:17:24.691Z,29.47
2017-10-29T15:19:56.007Z,28.50
2017-10-29T15:22:26.663Z,28.73
2017-10-29T15:24:56.170Z,29.90
2017-10-29T15:27:28.227Z,29.43
2017-10-29T15:29:56.394Z,28.50
2017-10-29T15:32:25.045Z,27.33
2017-10-29T15:34:53.036Z,28.80
2017-10-29T15:37:24.371Z,29.97
2017-10-29T15:39:54.259Z,35.30
2017-10-29T15:42:23.210Z,29.33
2017-10-29T15:44:53.378Z,28.73
2017-10-29T15:47:22.778Z,29.70
2017-10-29T15:49:52.838Z,27.63
2017-10-29T15:52:22.990Z,28.40
2017-10-29T15:54:54.503Z,30.00
2017-10-29T15:57:25.319Z,28.20
2017-10-29T15:59:53.985Z,28.03
2017-10-29T16:02:23.378Z,27.23
2017-10-29T16:04:53.219Z,27.77
2017-10-29T16:07:23.519Z,28.63
2017-10-29T16:09:52.943Z,28.27
2017-10-29T16:12:24.048Z,30.47
2017-10-29T16:14:54.836Z,28.80
2017-10-29T16:17:23.015Z,30.43
2017-10-29T16:19:51.015Z,30.40
2017-10-29T16:22:19.712Z,30.60
2017-10-29T16:24:48.542Z,30.53
2017-10-29T16:27:18.130Z,31.33
2017-10-29T16:29:47.495Z,31.70
2017-10-29T16:32:15.665Z,32.77
2017-10-29T16:34:44.143Z,32.37
2017-10-29T16:37:12.591Z,33.60
2017-10-29T16:39:43.925Z,33.30
2017-10-29T16:42:12.702Z,33.80
2017-10-29T16:44:42.844Z,33.83
2017-10-29T16:47:11.806Z,31.43
2017-10-29T16:49:40.527Z,38.27
2017-10-29T16:52:10.511Z,33.70
2017-10-29T16:54:39.900Z,32.67
2017-10-29T16:57:08.654Z,33.87
2017-10-29T16:59:37.865Z,33.37
2017-10-29T17:02:07.628Z,32.27
2017-10-29T17:04:38.479Z,33.67
2017-10-29T17:07:06.796Z,34.57
2017-10-29T17:12:09.807Z,35.57
2017-10-29T17:14:39.396Z,33.20
2017-10-29T17:17:08.174Z,32.67
2017-10-29T17:19:36.712Z,34.97
2017-10-29T17:22:04.711Z,32.07
2017-10-29T17:24:32.937Z,33.43
2017-10-29T17:27:02.356Z,32.43
2017-10-29T17:29:32.352Z,32.37
2017-10-29T17:32:01.224Z,30.70
2017-10-29T17:34:30.023Z,32.30
2017-10-29T17:36:59.775Z,30.80
2017-10-29T17:39:29.584Z,34.23
2017-10-29T17:41:58.648Z,33.93
2017-10-29T17:44:28.348Z,34.60
2017-10-29T17:46:58.799Z,33.47
2017-10-29T17:49:28.679Z,32.87
2017-10-29T17:51:57.763Z,35.00
2017-10-29T17:54:27.377Z,32.30
2017-10-29T17:56:58.205Z,31.17
2017-10-29T17:59:27.950Z,31.37
2017-10-29T18:01:58.368Z,36.60
2017-10-29T18:04:27.291Z,32.53
2017-10-29T18:06:55.456Z,29.83
2017-10-29T18:09:23.579Z,31.97
2017-10-29T18:11:51.864Z,29.70
2017-10-29T18:14:22.017Z,30.07
2017-10-29T18:16:52.245Z,28.93
2017-10-29T18:19:20.791Z,29.60
2017-10-29T18:21:50.470Z,29.40
2017-10-29T18:24:19.552Z,32.13
2017-10-29T18:26:47.725Z,31.57
2017-10-29T18:29:15.867Z,33.93
2017-10-29T18:31:45.831Z,31.57
2017-10-29T18:34:14.552Z,31.93
2017-10-29T18:36:42.599Z,35.70
2017-10-29T18:39:11.103Z,35.40
2017-10-29T18:41:41.021Z,39.70
2017-10-29T18:44:09.590Z,33.70
2017-10-29T18:46:38.831Z,31.23
2017-10-29T18:49:08.915Z,34.53
2017-10-29T18:51:37.140Z,33.53
2017-10-29T18:54:06.516Z,33.87
2017-10-29T18:56:36.623Z,35.43
2017-10-29T18:59:05.442Z,33.13
2017-10-29T19:01:34.204Z,32.97
2017-10-29T19:04:03.828Z,32.40
2017-10-29T19:06:32.999Z,31.20
2017-10-29T19:09:01.367Z,34.70
2017-10-29T19:11:30.396Z,32.43
2017-10-29T19:14:00.100Z,32.10
2017-10-29T19:16:29.347Z,32.67
2017-10-29T19:18:59.054Z,32.20
2017-10-29T19:21:28.306Z,31.87
2017-10-29T19:23:56.720Z,31.20
2017-10-29T19:26:26.656Z,30.87
2017-10-29T19:28:56.062Z,31.97
2017-10-29T19:31:25.088Z,32.93
2017-10-29T19:33:53.978Z,42.33
2017-10-29T19:36:22.778Z,33.03
2017-10-29T19:38:50.822Z,33.17
2017-10-29T19:41:19.914Z,34.30
2017-10-29T19:43:49.372Z,44.00
2017-10-29T19:46:18.199Z,35.70
2017-10-29T19:48:49.334Z,36.40
2017-10-29T19:51:18.263Z,36.33
2017-10-29T19:53:46.617Z,33.93
2017-10-29T19:56:16.463Z,32.33
2017-10-29T19:58:46.715Z,36.53
2017-10-29T20:01:16.150Z,37.97
2017-10-29T20:03:46.298Z,40.00
2017-10-29T20:06:15.699Z,43.57
2017-10-29T20:08:45.060Z,39.43
2017-10-29T20:11:13.776Z,41.60
2017-10-29T20:13:43.260Z,48.23
2017-10-29T20:16:12.560Z,42.07
2017-10-29T20:18:42.289Z,37.63
2017-10-29T20:21:12.311Z,41.53
2017-10-29T20:23:41.514Z,40.13
2017-10-29T20:26:10.066Z,35.07
2017-10-29T20:28:38.244Z,39.23
2017-10-29T20:31:06.870Z,42.50
2017-10-29T20:33:35.254Z,41.30
2017-10-29T20:36:03.742Z,33.87
2017-10-29T20:38:32.358Z,41.67
2017-10-29T20:41:01.248Z,39.70
2017-10-29T20:43:31.382Z,40.83
2017-10-29T20:46:00.616Z,43.53
2017-10-29T20:48:31.342Z,44.70
2017-10-29T20:51:00.815Z,41.57
2017-10-29T20:53:29.687Z,39.67
2017-10-29T20:55:58.119Z,40.70
2017-10-29T20:58:27.651Z,37.43
2017-10-29T21:00:55.855Z,37.10
2017-10-29T21:03:25.272Z,51.97
2017-10-29T21:05:54.374Z,52.37
2017-10-29T21:08:22.368Z,44.80
2017-10-29T21:10:50.820Z,49.13
2017-10-29T21:13:20.255Z,43.17
2017-10-29T21:15:50.255Z,57.97
2017-10-29T21:18:21.282Z,40.73
2017-10-29T21:20:50.350Z,50.43
2017-10-29T21:23:18.487Z,44.00
2017-10-29T21:25:47.003Z,46.53
2017-10-29T21:28:15.050Z,44.63
2017-10-29T21:30:45.278Z,51.70
2017-10-29T21:33:14.190Z,56.53
2017-10-29T21:35:43.090Z,45.50
2017-10-29T21:38:12.601Z,44.67
2017-10-29T21:40:40.755Z,59.67
2017-10-29T21:43:08.930Z,42.97
2017-10-29T21:45:39.127Z,50.73
2017-10-29T21:48:07.851Z,48.90
2017-10-29T21:50:36.920Z,48.63
2017-10-29T21:53:06.416Z,44.33
2017-10-29T21:55:35.248Z,51.43
2017-10-29T21:58:03.735Z,50.97
2017-10-29T22:00:32.404Z,45.67
2017-10-29T22:03:02.265Z,44.83
2017-10-29T22:05:31.645Z,48.63
2017-10-29T22:08:01.680Z,47.83
2017-10-29T22:10:29.836Z,55.37
2017-10-29T22:12:59.368Z,45.90
2017-10-29T22:15:27.595Z,49.50
2017-10-29T22:17:57.325Z,53.43
2017-10-29T22:20:26.120Z,45.80
2017-10-29T22:22:55.847Z,45.30
2017-10-29T22:25:24.364Z,47.50
2017-10-29T22:27:52.509Z,49.23
2017-10-29T22:30:22.211Z,64.03
2017-10-29T22:32:51.177Z,49.77
2017-10-29T22:35:20.441Z,53.40
2017-10-29T22:37:51.530Z,52.50
2017-10-29T22:40:19.952Z,49.50
2017-10-29T22:42:48.699Z,49.30
2017-10-29T22:45:18.400Z,60.90
2017-10-29T22:47:48.832Z,59.63
2017-10-29T22:50:17.907Z,47.97
2017-10-29T22:52:50.236Z,62.17
2017-10-29T22:55:21.408Z,61.27
2017-10-29T22:57:49.729Z,56.43
2017-10-29T23:00:17.787Z,53.23
2017-10-29T23:02:47.971Z,56.63
2017-10-29T23:05:18.417Z,56.57
2017-10-29T23:07:58.531Z,55.33
2017-10-29T23:10:26.798Z,54.37
2017-10-29T23:12:54.813Z,57.50
2017-10-29T23:15:23.749Z,54.60
2017-10-29T23:17:54.353Z,55.60
2017-10-29T23:20:24.192Z,58.10
2017-10-29T23:22:53.547Z,59.73
2017-10-29T23:25:22.307Z,60.07
2017-10-29T23:27:51.012Z,63.83
2017-10-29T23:30:19.037Z,57.30
2017-10-29T23:32:49.348Z,54.77
2017-10-29T23:35:19.917Z,59.80
2017-10-29T23:37:50.881Z,55.97
2017-10-29T23:40:20.756Z,62.73
2017-10-29T23:42:48.768Z,59.93
2017-10-29T23:45:18.042Z,68.50
2017-10-29T23:47:46.930Z,60.43
2017-10-29T23:50:16.050Z,59.47
2017-10-29T23:52:47.196Z,60.17
2017-10-29T23:55:15.952Z,55.40
2017-10-29T23:57:44.286Z,56.83
